sensor_id;sensor_type;location;lat;lon;timestamp;pressure;altitude;pressure_sealevel;temperature;humidity
43119;BME280;28729;49.838;8.650;2024-02-21T00:02:26;100717.03;;;8.91;100.00
43119;BME280;28729;49.838;8.650;2024-02-21T00:06:28;100702.47;;;8.90;100.00
43119;BME280;28729;49.838;8.650;2024-02-21T00:10:30;100700.75;;;8.96;100.00
43119;BME280;28729;49.838;8.650;2024-02-21T00:14:34;100701.59;;;8.97;100.00
43119;BME280;28729;49.838;8.650;2024-02-21T00:18:36;100699.69;;;8.97;100.00
43119;BME280;28729;49.838;8.650;2024-02-21T00:22:38;100699.69;;;8.97;100.00
43119;BME280;28729;49.838;8.650;2024-02-21T00:26:40;100688.88;;;9.02;100.00
43119;BME280;28729;49.838;8.650;2024-02-21T00:30:43;100678.53;;;8.98;100.00
43119;BME280;28729;49.838;8.650;2024-02-21T00:34:45;100675.38;;;8.94;100.00
43119;BME280;28729;49.838;8.650;2024-02-21T00:38:47;100662.88;;;8.98;100.00
43119;BME280;28729;49.838;8.650;2024-02-21T00:42:49;100647.69;;;8.96;100.00
43119;BME280;28729;49.838;8.650;2024-02-21T00:46:52;100644.28;;;8.94;100.00
43119;BME280;28729;49.838;8.650;2024-02-21T00:50:54;100625.88;;;8.94;100.00
43119;BME280;28729;49.838;8.650;2024-02-21T00:54:56;100629.09;;;8.91;100.00
43119;BME280;28729;49.838;8.650;2024-02-21T00:59:00;100615.59;;;8.83;100.00
43119;BME280;28729;49.838;8.650;2024-02-21T01:03:04;100606.28;;;8.84;100.00
43119;BME280;28729;49.838;8.650;2024-02-21T01:07:12;100601.69;;;8.78;100.00
43119;BME280;28729;49.838;8.650;2024-02-21T01:11:18;100596.22;;;8.64;100.00
43119;BME280;28729;49.838;8.650;2024-02-21T01:15:20;100599.41;;;8.61;100.00
43119;BME280;28729;49.838;8.650;2024-02-21T01:19:22;100595.44;;;8.57;100.00
43119;BME280;28729;49.838;8.650;2024-02-21T01:23:25;100611.50;;;8.54;100.00
43119;BME280;28729;49.838;8.650;2024-02-21T01:27:33;100606.84;;;8.54;100.00
43119;BME280;28729;49.838;8.650;2024-02-21T01:31:35;100603.47;;;8.52;100.00
43119;BME280;28729;49.838;8.650;2024-02-21T01:35:37;100609.59;;;8.54;100.00
43119;BME280;28729;49.838;8.650;2024-02-21T01:39:39;100622.25;;;8.55;100.00
43119;BME280;28729;49.838;8.650;2024-02-21T01:43:41;100623.94;;;8.56;100.00
43119;BME280;28729;49.838;8.650;2024-02-21T01:47:44;100600.28;;;8.55;100.00
43119;BME280;28729;49.838;8.650;2024-02-21T01:51:46;100585.31;;;8.51;100.00
43119;BME280;28729;49.838;8.650;2024-02-21T01:55:48;100595.03;;;8.47;100.00
43119;BME280;28729;49.838;8.650;2024-02-21T01:59:52;100596.53;;;8.43;100.00
43119;BME280;28729;49.838;8.650;2024-02-21T02:03:54;100594.63;;;8.37;100.00
43119;BME280;28729;49.838;8.650;2024-02-21T02:07:59;100581.31;;;8.34;100.00
43119;BME280;28729;49.838;8.650;2024-02-21T02:12:01;100572.00;;;8.35;100.00
43119;BME280;28729;49.838;8.650;2024-02-21T02:16:04;100559.56;;;8.32;100.00
43119;BME280;28729;49.838;8.650;2024-02-21T02:20:07;100545.63;;;8.34;100.00
43119;BME280;28729;49.838;8.650;2024-02-21T02:24:13;100547.72;;;8.32;100.00
43119;BME280;28729;49.838;8.650;2024-02-21T02:28:15;100539.72;;;8.30;100.00
43119;BME280;28729;49.838;8.650;2024-02-21T02:32:19;100550.91;;;8.29;100.00
43119;BME280;28729;49.838;8.650;2024-02-21T02:36:21;100534.44;;;8.29;100.00
43119;BME280;28729;49.838;8.650;2024-02-21T02:40:23;100534.22;;;8.23;100.00
43119;BME280;28729;49.838;8.650;2024-02-21T02:44:26;100535.97;;;8.18;100.00
43119;BME280;28729;49.838;8.650;2024-02-21T02:48:28;100532.19;;;8.12;100.00
43119;BME280;28729;49.838;8.650;2024-02-21T02:52:31;100523.75;;;8.07;100.00
43119;BME280;28729;49.838;8.650;2024-02-21T02:56:33;100520.38;;;8.05;100.00
43119;BME280;28729;49.838;8.650;2024-02-21T03:00:35;100517.00;;;8.03;100.00
43119;BME280;28729;49.838;8.650;2024-02-21T03:04:39;100523.53;;;8.02;100.00
43119;BME280;28729;49.838;8.650;2024-02-21T03:08:41;100510.69;;;7.96;100.00
43119;BME280;28729;49.838;8.650;2024-02-21T03:12:44;100505.63;;;7.93;100.00
43119;BME280;28729;49.838;8.650;2024-02-21T03:16:46;100484.34;;;7.88;100.00
43119;BME280;28729;49.838;8.650;2024-02-21T03:20:48;100495.50;;;7.87;100.00
43119;BME280;28729;49.838;8.650;2024-02-21T03:24:50;100498.91;;;7.82;100.00
43119;BME280;28729;49.838;8.650;2024-02-21T03:28:51;100486.69;;;7.71;100.00
43119;BME280;28729;49.838;8.650;2024-02-21T03:32:53;100491.78;;;7.68;100.00
43119;BME280;28729;49.838;8.650;2024-02-21T03:36:56;100489.66;;;7.63;100.00
43119;BME280;28729;49.838;8.650;2024-02-21T03:40:58;100480.38;;;7.58;100.00
43119;BME280;28729;49.838;8.650;2024-02-21T03:45:01;100464.38;;;7.48;100.00
43119;BME280;28729;49.838;8.650;2024-02-21T03:49:03;100470.28;;;7.51;100.00
43119;BME280;28729;49.838;8.650;2024-02-21T03:53:04;100467.53;;;7.65;100.00
43119;BME280;28729;49.838;8.650;2024-02-21T03:57:06;100469.16;;;7.72;100.00
43119;BME280;28729;49.838;8.650;2024-02-21T04:01:08;100478.41;;;7.85;100.00
43119;BME280;28729;49.838;8.650;2024-02-21T04:05:10;100485.16;;;7.95;100.00
43119;BME280;28729;49.838;8.650;2024-02-21T04:09:13;100481.53;;;8.02;100.00
43119;BME280;28729;49.838;8.650;2024-02-21T04:13:15;100479.00;;;8.07;100.00
43119;BME280;28729;49.838;8.650;2024-02-21T04:17:19;100487.00;;;8.08;100.00
43119;BME280;28729;49.838;8.650;2024-02-21T04:21:21;100481.69;;;8.13;100.00
43119;BME280;28729;49.838;8.650;2024-02-21T04:25:24;100466.31;;;8.12;100.00
43119;BME280;28729;49.838;8.650;2024-02-21T04:29:26;100479.16;;;8.12;100.00
43119;BME280;28729;49.838;8.650;2024-02-21T04:33:31;100456.16;;;8.13;100.00
43119;BME280;28729;49.838;8.650;2024-02-21T04:37:33;100459.13;;;8.11;100.00
43119;BME280;28729;49.838;8.650;2024-02-21T04:41:36;100442.44;;;8.13;100.00
43119;BME280;28729;49.838;8.650;2024-02-21T04:45:38;100420.69;;;8.11;100.00
43119;BME280;28729;49.838;8.650;2024-02-21T04:49:40;100434.84;;;8.08;100.00
43119;BME280;28729;49.838;8.650;2024-02-21T04:53:41;100412.88;;;8.08;100.00
43119;BME280;28729;49.838;8.650;2024-02-21T04:57:43;100411.84;;;8.09;100.00
43119;BME280;28729;49.838;8.650;2024-02-21T05:01:47;100397.47;;;8.07;100.00
43119;BME280;28729;49.838;8.650;2024-02-21T05:05:49;100391.13;;;8.13;100.00
43119;BME280;28729;49.838;8.650;2024-02-21T05:09:51;100387.31;;;8.14;100.00
43119;BME280;28729;49.838;8.650;2024-02-21T05:13:53;100391.31;;;8.12;100.00
43119;BME280;28729;49.838;8.650;2024-02-21T05:17:55;100384.41;;;8.09;100.00
43119;BME280;28729;49.838;8.650;2024-02-21T05:21:58;100385.03;;;8.05;100.00
43119;BME280;28729;49.838;8.650;2024-02-21T05:26:00;100370.09;;;8.01;100.00
43119;BME280;28729;49.838;8.650;2024-02-21T05:30:03;100374.09;;;7.98;100.00
43119;BME280;28729;49.838;8.650;2024-02-21T05:34:05;100387.22;;;7.89;100.00
43119;BME280;28729;49.838;8.650;2024-02-21T05:38:07;100376.66;;;7.93;100.00
43119;BME280;28729;49.838;8.650;2024-02-21T05:42:13;100382.72;;;8.02;100.00
43119;BME280;28729;49.838;8.650;2024-02-21T05:46:19;100384.00;;;7.99;100.00
43119;BME280;28729;49.838;8.650;2024-02-21T05:50:21;100379.78;;;8.03;100.00
43119;BME280;28729;49.838;8.650;2024-02-21T05:54:25;100379.78;;;8.03;100.00
43119;BME280;28729;49.838;8.650;2024-02-21T05:58:27;100370.53;;;7.97;100.00
43119;BME280;28729;49.838;8.650;2024-02-21T06:02:29;100374.28;;;8.03;100.00
43119;BME280;28729;49.838;8.650;2024-02-21T06:06:31;100371.34;;;7.98;100.00
43119;BME280;28729;49.838;8.650;2024-02-21T06:10:33;100382.72;;;8.02;100.00
43119;BME280;28729;49.838;8.650;2024-02-21T06:14:35;100383.38;;;8.04;100.00
43119;BME280;28729;49.838;8.650;2024-02-21T06:18:37;100375.56;;;8.01;100.00
43119;BME280;28729;49.838;8.650;2024-02-21T06:22:46;100371.13;;;7.99;100.00
43119;BME280;28729;49.838;8.650;2024-02-21T06:26:54;100369.88;;;7.95;100.00
43119;BME280;28729;49.838;8.650;2024-02-21T06:30:56;100358.28;;;7.93;100.00
43119;BME280;28729;49.838;8.650;2024-02-21T06:34:58;100347.09;;;7.95;100.00
43119;BME280;28729;49.838;8.650;2024-02-21T06:39:04;100355.97;;;7.90;100.00
43119;BME280;28729;49.838;8.650;2024-02-21T06:43:09;100342.75;;;7.81;100.00
43119;BME280;28729;49.838;8.650;2024-02-21T06:47:14;100330.13;;;7.66;100.00
43119;BME280;28729;49.838;8.650;2024-02-21T06:51:16;100338.44;;;7.53;100.00
43119;BME280;28729;49.838;8.650;2024-02-21T06:55:20;100348.56;;;7.46;100.00
43119;BME280;28729;49.838;8.650;2024-02-21T06:59:23;100342.72;;;7.36;100.00
43119;BME280;28729;49.838;8.650;2024-02-21T07:03:26;100348.00;;;7.30;100.00
43119;BME280;28729;49.838;8.650;2024-02-21T07:07:33;100340.84;;;7.29;100.00
43119;BME280;28729;49.838;8.650;2024-02-21T07:11:37;100349.47;;;7.33;100.00
43119;BME280;28729;49.838;8.650;2024-02-21T07:15:43;100356.00;;;7.39;100.00
43119;BME280;28729;49.838;8.650;2024-02-21T07:19:51;100338.66;;;7.45;100.00
43119;BME280;28729;49.838;8.650;2024-02-21T07:23:53;100329.59;;;7.44;100.00
43119;BME280;28729;49.838;8.650;2024-02-21T07:28:01;100331.09;;;7.47;100.00
43119;BME280;28729;49.838;8.650;2024-02-21T07:32:04;100329.78;;;7.56;100.00
43119;BME280;28729;49.838;8.650;2024-02-21T07:36:07;100320.69;;;7.62;100.00
43119;BME280;28729;49.838;8.650;2024-02-21T07:40:14;100332.00;;;7.72;100.00
43119;BME280;28729;49.838;8.650;2024-02-21T07:44:16;100330.94;;;7.80;100.00
43119;BME280;28729;49.838;8.650;2024-02-21T07:48:21;100332.09;;;7.97;100.00
43119;BME280;28729;49.838;8.650;2024-02-21T07:52:26;100331.63;;;8.07;100.00
43119;BME280;28729;49.838;8.650;2024-02-21T07:56:29;100333.66;;;8.18;100.00
43119;BME280;28729;49.838;8.650;2024-02-21T08:00:33;100324.09;;;8.28;100.00
43119;BME280;28729;49.838;8.650;2024-02-21T08:04:42;100322.09;;;8.41;100.00
43119;BME280;28729;49.838;8.650;2024-02-21T08:08:44;100323.75;;;8.49;100.00
43119;BME280;28729;49.838;8.650;2024-02-21T08:12:53;100320.38;;;8.47;100.00
43119;BME280;28729;49.838;8.650;2024-02-21T08:16:55;100303.44;;;8.50;100.00
43119;BME280;28729;49.838;8.650;2024-02-21T08:20:58;100297.66;;;8.58;100.00
43119;BME280;28729;49.838;8.650;2024-02-21T08:25:00;100292.72;;;8.67;100.00
43119;BME280;28729;49.838;8.650;2024-02-21T08:29:02;100287.34;;;8.79;100.00
43119;BME280;28729;49.838;8.650;2024-02-21T08:33:06;100285.03;;;8.76;100.00
43119;BME280;28729;49.838;8.650;2024-02-21T08:37:09;100270.69;;;8.92;100.00
43119;BME280;28729;49.838;8.650;2024-02-21T08:41:15;100268.91;;;9.04;100.00
43119;BME280;28729;49.838;8.650;2024-02-21T08:45:18;100263.06;;;9.12;100.00
43119;BME280;28729;49.838;8.650;2024-02-21T08:49:28;100265.00;;;9.12;100.00
43119;BME280;28729;49.838;8.650;2024-02-21T08:53:37;100267.91;;;9.17;100.00
43119;BME280;28729;49.838;8.650;2024-02-21T08:57:46;100257.06;;;9.22;100.00
43119;BME280;28729;49.838;8.650;2024-02-21T09:01:54;100254.69;;;9.26;100.00
43119;BME280;28729;49.838;8.650;2024-02-21T09:05:56;100245.34;;;9.27;100.00
43119;BME280;28729;49.838;8.650;2024-02-21T09:09:58;100248.72;;;9.29;100.00
43119;BME280;28729;49.838;8.650;2024-02-21T09:14:01;100239.44;;;9.42;100.00
43119;BME280;28729;49.838;8.650;2024-02-21T09:18:06;100235.59;;;9.61;99.93
43119;BME280;28729;49.838;8.650;2024-02-21T09:22:12;100232.28;;;9.71;98.05
43119;BME280;28729;49.838;8.650;2024-02-21T09:26:14;100231.25;;;9.84;97.61
43119;BME280;28729;49.838;8.650;2024-02-21T09:30:22;100222.69;;;10.03;96.59
43119;BME280;28729;49.838;8.650;2024-02-21T09:34:24;100221.38;;;10.18;95.19
43119;BME280;28729;49.838;8.650;2024-02-21T09:38:26;100211.09;;;10.25;94.18
43119;BME280;28729;49.838;8.650;2024-02-21T09:42:39;100209.09;;;10.44;94.11
43119;BME280;28729;49.838;8.650;2024-02-21T09:47:03;100208.72;;;10.64;92.01
43119;BME280;28729;49.838;8.650;2024-02-21T09:51:07;100209.19;;;10.84;91.48
43119;BME280;28729;49.838;8.650;2024-02-21T09:55:10;100209.66;;;11.05;88.03
43119;BME280;28729;49.838;8.650;2024-02-21T09:59:15;100208.66;;;11.11;86.95
43119;BME280;28729;49.838;8.650;2024-02-21T10:03:17;100207.53;;;11.24;86.47
43119;BME280;28729;49.838;8.650;2024-02-21T10:07:19;100206.25;;;11.14;85.11
43119;BME280;28729;49.838;8.650;2024-02-21T10:11:25;100205.56;;;11.07;85.90
43119;BME280;28729;49.838;8.650;2024-02-21T10:15:27;100193.44;;;11.08;85.26
43119;BME280;28729;49.838;8.650;2024-02-21T10:19:29;100190.66;;;11.20;85.75
43119;BME280;28729;49.838;8.650;2024-02-21T10:23:48;100174.16;;;11.37;85.12
43119;BME280;28729;49.838;8.650;2024-02-21T10:27:50;100176.38;;;11.52;84.59
43119;BME280;28729;49.838;8.650;2024-02-21T10:32:03;100170.03;;;11.68;82.93
43119;BME280;28729;49.838;8.650;2024-02-21T10:36:09;100162.31;;;11.53;81.55
43119;BME280;28729;49.838;8.650;2024-02-21T10:40:11;100151.97;;;11.60;82.48
43119;BME280;28729;49.838;8.650;2024-02-21T10:44:16;100144.56;;;11.78;81.72
43119;BME280;28729;49.838;8.650;2024-02-21T10:48:24;100137.81;;;11.85;80.71
43119;BME280;28729;49.838;8.650;2024-02-21T10:52:53;100129.34;;;11.92;79.81
43119;BME280;28729;49.838;8.650;2024-02-21T10:56:58;100129.75;;;12.01;80.12
43119;BME280;28729;49.838;8.650;2024-02-21T11:01:02;100123.91;;;12.14;79.86
43119;BME280;28729;49.838;8.650;2024-02-21T11:05:05;100127.09;;;12.06;78.73
43119;BME280;28729;49.838;8.650;2024-02-21T11:09:09;100113.69;;;11.98;78.53
43119;BME280;28729;49.838;8.650;2024-02-21T11:13:12;100099.81;;;11.93;79.44
43119;BME280;28729;49.838;8.650;2024-02-21T11:17:19;100102.38;;;12.16;79.39
43119;BME280;28729;49.838;8.650;2024-02-21T11:21:33;100079.25;;;12.22;78.38
43119;BME280;28729;49.838;8.650;2024-02-21T11:25:35;100067.78;;;12.30;78.62
43119;BME280;28729;49.838;8.650;2024-02-21T11:29:43;100066.09;;;12.46;77.79
43119;BME280;28729;49.838;8.650;2024-02-21T11:33:47;100054.31;;;12.56;76.81
43119;BME280;28729;49.838;8.650;2024-02-21T11:37:50;100047.69;;;12.57;75.88
43119;BME280;28729;49.838;8.650;2024-02-21T11:42:04;100046.13;;;12.66;76.31
43119;BME280;28729;49.838;8.650;2024-02-21T11:46:07;100044.41;;;12.82;75.04
43119;BME280;28729;49.838;8.650;2024-02-21T11:50:11;100029.31;;;12.95;74.46
43119;BME280;28729;49.838;8.650;2024-02-21T11:54:17;100024.16;;;13.04;73.51
43119;BME280;28729;49.838;8.650;2024-02-21T11:58:19;100014.97;;;12.98;72.61
43119;BME280;28729;49.838;8.650;2024-02-21T12:02:20;100001.72;;;13.00;72.22
43119;BME280;28729;49.838;8.650;2024-02-21T12:06:22;99991.34;;;13.12;72.32
43119;BME280;28729;49.838;8.650;2024-02-21T12:10:26;99981.63;;;13.10;71.01
43119;BME280;28729;49.838;8.650;2024-02-21T12:14:29;99978.91;;;13.15;71.20
43119;BME280;28729;49.838;8.650;2024-02-21T12:18:31;99964.50;;;13.13;70.56
43119;BME280;28729;49.838;8.650;2024-02-21T12:22:35;99959.50;;;13.10;70.32
43119;BME280;28729;49.838;8.650;2024-02-21T12:26:37;99951.00;;;13.21;70.66
43119;BME280;28729;49.838;8.650;2024-02-21T12:30:39;99942.84;;;13.37;69.63
43119;BME280;28729;49.838;8.650;2024-02-21T12:34:42;99928.25;;;13.41;68.74
43119;BME280;28729;49.838;8.650;2024-02-21T12:38:54;99913.75;;;13.72;68.87
43119;BME280;28729;49.838;8.650;2024-02-21T12:42:57;99906.00;;;13.74;66.41
43119;BME280;28729;49.838;8.650;2024-02-21T12:46:58;99903.75;;;13.71;66.07
43119;BME280;28729;49.838;8.650;2024-02-21T12:51:00;99890.44;;;13.62;65.61
43119;BME280;28729;49.838;8.650;2024-02-21T12:55:03;99882.59;;;13.49;65.92
43119;BME280;28729;49.838;8.650;2024-02-21T12:59:05;99869.56;;;13.44;66.17
43119;BME280;28729;49.838;8.650;2024-02-21T13:03:11;99877.50;;;13.31;66.01
43119;BME280;28729;49.838;8.650;2024-02-21T13:07:12;99883.91;;;13.36;66.48
43119;BME280;28729;49.838;8.650;2024-02-21T13:11:14;99874.94;;;13.24;66.52
43119;BME280;28729;49.838;8.650;2024-02-21T13:15:17;99857.47;;;13.18;66.90
43119;BME280;28729;49.838;8.650;2024-02-21T13:19:20;99851.09;;;13.18;67.65
43119;BME280;28729;49.838;8.650;2024-02-21T13:23:22;99840.22;;;13.06;66.74
43119;BME280;28729;49.838;8.650;2024-02-21T13:27:24;99831.88;;;13.01;67.61
43119;BME280;28729;49.838;8.650;2024-02-21T13:31:25;99822.41;;;12.92;67.88
43119;BME280;28729;49.838;8.650;2024-02-21T13:35:27;99797.53;;;12.92;68.49
43119;BME280;28729;49.838;8.650;2024-02-21T13:39:30;99793.66;;;12.93;68.63
43119;BME280;28729;49.838;8.650;2024-02-21T13:43:31;99787.34;;;13.03;68.62
43119;BME280;28729;49.838;8.650;2024-02-21T13:47:33;99789.31;;;13.07;67.65
43119;BME280;28729;49.838;8.650;2024-02-21T13:51:36;99781.50;;;12.99;67.58
43119;BME280;28729;49.838;8.650;2024-02-21T13:55:40;99774.63;;;13.02;66.91
43119;BME280;28729;49.838;8.650;2024-02-21T13:59:42;99753.97;;;13.19;67.36
43119;BME280;28729;49.838;8.650;2024-02-21T14:03:44;99746.78;;;13.18;66.59
43119;BME280;28729;49.838;8.650;2024-02-21T14:07:46;99734.59;;;13.19;66.63
43119;BME280;28729;49.838;8.650;2024-02-21T14:11:48;99736.50;;;13.14;66.73
43119;BME280;28729;49.838;8.650;2024-02-21T14:15:49;99722.44;;;13.15;67.47
43119;BME280;28729;49.838;8.650;2024-02-21T14:19:51;99723.22;;;13.11;67.02
43119;BME280;28729;49.838;8.650;2024-02-21T14:23:53;99698.88;;;13.08;67.31
43119;BME280;28729;49.838;8.650;2024-02-21T14:27:55;99691.97;;;13.10;66.80
43119;BME280;28729;49.838;8.650;2024-02-21T14:31:57;99678.94;;;13.00;66.92
43119;BME280;28729;49.838;8.650;2024-02-21T14:35:58;99669.81;;;13.05;66.96
43119;BME280;28729;49.838;8.650;2024-02-21T14:40:00;99664.81;;;12.97;67.03
43119;BME280;28729;49.838;8.650;2024-02-21T14:44:02;99644.59;;;12.91;67.46
43119;BME280;28729;49.838;8.650;2024-02-21T14:48:05;99650.91;;;12.87;67.64
43119;BME280;28729;49.838;8.650;2024-02-21T14:52:07;99629.06;;;12.90;67.05
43119;BME280;28729;49.838;8.650;2024-02-21T14:56:13;99609.47;;;12.92;67.24
43119;BME280;28729;49.838;8.650;2024-02-21T15:00:16;99623.59;;;13.06;67.39
43119;BME280;28729;49.838;8.650;2024-02-21T15:04:18;99628.00;;;12.96;66.58
43119;BME280;28729;49.838;8.650;2024-02-21T15:08:20;99631.25;;;12.83;65.76
43119;BME280;28729;49.838;8.650;2024-02-21T15:12:23;99623.97;;;12.62;65.81
43119;BME280;28729;49.838;8.650;2024-02-21T15:16:25;99605.69;;;12.56;66.57
43119;BME280;28729;49.838;8.650;2024-02-21T15:20:26;99600.38;;;12.44;66.80
43119;BME280;28729;49.838;8.650;2024-02-21T15:24:29;99585.91;;;12.26;67.19
43119;BME280;28729;49.838;8.650;2024-02-21T15:28:31;99573.09;;;12.15;67.32
43119;BME280;28729;49.838;8.650;2024-02-21T15:32:33;99547.53;;;11.93;67.04
43119;BME280;28729;49.838;8.650;2024-02-21T15:36:35;99545.25;;;11.84;67.13
43119;BME280;28729;49.838;8.650;2024-02-21T15:40:36;99531.63;;;11.73;67.03
43119;BME280;28729;49.838;8.650;2024-02-21T15:44:38;99547.63;;;11.71;67.56
43119;BME280;28729;49.838;8.650;2024-02-21T15:48:40;99539.81;;;11.62;66.77
43119;BME280;28729;49.838;8.650;2024-02-21T15:52:42;99527.72;;;11.63;66.92
43119;BME280;28729;49.838;8.650;2024-02-21T15:56:44;99518.06;;;11.66;66.97
43119;BME280;28729;49.838;8.650;2024-02-21T16:00:46;99528.25;;;11.60;67.07
43119;BME280;28729;49.838;8.650;2024-02-21T16:04:48;99502.53;;;11.60;67.31
43119;BME280;28729;49.838;8.650;2024-02-21T16:08:51;99521.25;;;11.53;67.48
43119;BME280;28729;49.838;8.650;2024-02-21T16:12:53;99508.78;;;11.45;67.61
43119;BME280;28729;49.838;8.650;2024-02-21T16:16:55;99497.41;;;11.36;68.15
43119;BME280;28729;49.838;8.650;2024-02-21T16:20:58;99483.50;;;11.26;68.13
43119;BME280;28729;49.838;8.650;2024-02-21T16:25:00;99461.97;;;11.23;68.33
43119;BME280;28729;49.838;8.650;2024-02-21T16:29:03;99441.78;;;11.17;67.47
43119;BME280;28729;49.838;8.650;2024-02-21T16:33:05;99431.59;;;11.18;67.30
43119;BME280;28729;49.838;8.650;2024-02-21T16:37:08;99436.75;;;11.09;66.17
43119;BME280;28729;49.838;8.650;2024-02-21T16:41:11;99453.03;;;11.11;65.94
43119;BME280;28729;49.838;8.650;2024-02-21T16:45:13;99432.03;;;11.05;65.34
43119;BME280;28729;49.838;8.650;2024-02-21T16:49:14;99436.16;;;11.02;65.29
43119;BME280;28729;49.838;8.650;2024-02-21T16:53:16;99397.19;;;10.93;64.40
43119;BME280;28729;49.838;8.650;2024-02-21T16:57:18;99392.72;;;10.87;63.55
43119;BME280;28729;49.838;8.650;2024-02-21T17:01:20;99403.44;;;10.84;61.38
43119;BME280;28729;49.838;8.650;2024-02-21T17:05:22;99402.94;;;10.87;60.52
43119;BME280;28729;49.838;8.650;2024-02-21T17:09:27;99394.34;;;10.83;60.16
43119;BME280;28729;49.838;8.650;2024-02-21T17:13:30;99385.00;;;10.84;60.53
43119;BME280;28729;49.838;8.650;2024-02-21T17:17:34;99393.31;;;10.89;60.94
43119;BME280;28729;49.838;8.650;2024-02-21T17:21:36;99390.56;;;10.94;61.86
43119;BME280;28729;49.838;8.650;2024-02-21T17:25:38;99380.66;;;10.93;62.47
43119;BME280;28729;49.838;8.650;2024-02-21T17:29:40;99383.69;;;10.92;62.63
43119;BME280;28729;49.838;8.650;2024-02-21T17:33:42;99372.97;;;10.95;63.34
43119;BME280;28729;49.838;8.650;2024-02-21T17:37:44;99371.81;;;10.91;63.96
43119;BME280;28729;49.838;8.650;2024-02-21T17:41:46;99366.00;;;10.88;64.42
43119;BME280;28729;49.838;8.650;2024-02-21T17:45:48;99349.69;;;10.81;64.82
43119;BME280;28729;49.838;8.650;2024-02-21T17:49:52;99348.84;;;10.81;65.10
43119;BME280;28729;49.838;8.650;2024-02-21T17:53:53;99346.31;;;10.74;65.47
43119;BME280;28729;49.838;8.650;2024-02-21T17:57:55;99336.47;;;10.83;65.14
43119;BME280;28729;49.838;8.650;2024-02-21T18:01:57;99323.78;;;10.82;65.90
43119;BME280;28729;49.838;8.650;2024-02-21T18:06:02;99333.72;;;10.83;65.43
43119;BME280;28729;49.838;8.650;2024-02-21T18:10:06;99324.41;;;10.89;65.24
43119;BME280;28729;49.838;8.650;2024-02-21T18:14:07;99313.38;;;10.89;64.93
43119;BME280;28729;49.838;8.650;2024-02-21T18:18:10;99304.28;;;10.94;64.78
43119;BME280;28729;49.838;8.650;2024-02-21T18:22:12;99307.88;;;10.94;64.66
43119;BME280;28729;49.838;8.650;2024-02-21T18:26:14;99296.38;;;11.03;64.79
43119;BME280;28729;49.838;8.650;2024-02-21T18:30:16;99280.09;;;11.01;64.62
43119;BME280;28729;49.838;8.650;2024-02-21T18:34:19;99274.63;;;11.11;65.01
43119;BME280;28729;49.838;8.650;2024-02-21T18:38:21;99289.81;;;11.14;64.60
43119;BME280;28729;49.838;8.650;2024-02-21T18:42:23;99289.56;;;11.15;64.57
43119;BME280;28729;49.838;8.650;2024-02-21T18:46:25;99296.22;;;11.20;64.71
43119;BME280;28729;49.838;8.650;2024-02-21T18:50:26;99284.88;;;11.16;64.66
43119;BME280;28729;49.838;8.650;2024-02-21T18:54:28;99273.03;;;11.15;64.24
43119;BME280;28729;49.838;8.650;2024-02-21T18:58:31;99282.66;;;11.18;64.21
43119;BME280;28729;49.838;8.650;2024-02-21T19:02:33;99273.06;;;11.26;64.47
43119;BME280;28729;49.838;8.650;2024-02-21T19:06:35;99261.22;;;11.25;64.30
43119;BME280;28729;49.838;8.650;2024-02-21T19:10:37;99266.72;;;11.25;64.26
43119;BME280;28729;49.838;8.650;2024-02-21T19:14:39;99250.72;;;11.22;64.37
43119;BME280;28729;49.838;8.650;2024-02-21T19:18:42;99255.69;;;11.25;64.34
43119;BME280;28729;49.838;8.650;2024-02-21T19:22:44;99255.69;;;11.25;63.89
43119;BME280;28729;49.838;8.650;2024-02-21T19:26:48;99241.09;;;11.30;63.88
43119;BME280;28729;49.838;8.650;2024-02-21T19:30:50;99245.00;;;11.34;63.63
43119;BME280;28729;49.838;8.650;2024-02-21T19:34:52;99220.69;;;11.36;63.75
43119;BME280;28729;49.838;8.650;2024-02-21T19:38:54;99219.63;;;11.37;63.54
43119;BME280;28729;49.838;8.650;2024-02-21T19:42:57;99207.47;;;11.38;63.62
43119;BME280;28729;49.838;8.650;2024-02-21T19:46:58;99199.19;;;11.38;63.44
43119;BME280;28729;49.838;8.650;2024-02-21T19:51:00;99188.75;;;11.40;63.54
43119;BME280;28729;49.838;8.650;2024-02-21T19:55:05;99173.56;;;11.37;63.39
43119;BME280;28729;49.838;8.650;2024-02-21T19:59:07;99176.03;;;11.39;63.52
43119;BME280;28729;49.838;8.650;2024-02-21T20:03:09;99169.13;;;11.41;63.53
43119;BME280;28729;49.838;8.650;2024-02-21T20:07:11;99159.50;;;11.44;63.27
43119;BME280;28729;49.838;8.650;2024-02-21T20:11:12;99147.63;;;11.44;63.43
43119;BME280;28729;49.838;8.650;2024-02-21T20:15:16;99140.44;;;11.37;65.67
43119;BME280;28729;49.838;8.650;2024-02-21T20:19:19;99127.16;;;11.19;67.46
43119;BME280;28729;49.838;8.650;2024-02-21T20:23:21;99116.63;;;11.06;69.35
43119;BME280;28729;49.838;8.650;2024-02-21T20:27:25;99106.97;;;10.98;70.66
43119;BME280;28729;49.838;8.650;2024-02-21T20:31:27;99094.25;;;10.92;71.71
43119;BME280;28729;49.838;8.650;2024-02-21T20:35:29;99084.84;;;10.88;72.41
43119;BME280;28729;49.838;8.650;2024-02-21T20:39:32;99072.97;;;10.77;72.76
43119;BME280;28729;49.838;8.650;2024-02-21T20:43:33;99053.09;;;10.70;73.70
43119;BME280;28729;49.838;8.650;2024-02-21T20:47:35;99050.06;;;10.77;73.35
43119;BME280;28729;49.838;8.650;2024-02-21T20:51:38;99038.47;;;10.69;75.47
43119;BME280;28729;49.838;8.650;2024-02-21T20:55:40;99037.09;;;10.67;76.20
43119;BME280;28729;49.838;8.650;2024-02-21T20:59:42;99018.03;;;10.50;78.25
43119;BME280;28729;49.838;8.650;2024-02-21T21:03:44;99013.84;;;10.42;80.03
43119;BME280;28729;49.838;8.650;2024-02-21T21:07:46;99006.66;;;10.36;82.10
43119;BME280;28729;49.838;8.650;2024-02-21T21:11:49;98990.41;;;10.30;83.31
43119;BME280;28729;49.838;8.650;2024-02-21T21:15:51;99002.13;;;10.20;85.98
43119;BME280;28729;49.838;8.650;2024-02-21T21:19:53;99008.94;;;10.07;88.69